createdAt,value
2022-12-28T00:00:25.934Z,100.00
2022-12-28T00:02:55.953Z,100.00
2022-12-28T00:05:26.380Z,100.00
2022-12-28T00:07:56.348Z,100.00
2022-12-28T00:11:08.344Z,100.00
2022-12-28T00:13:18.929Z,100.00
2022-12-28T00:15:48.929Z,100.00
2022-12-28T00:18:19.200Z,100.00
2022-12-28T00:21:00.030Z,100.00
2022-12-28T00:23:30.973Z,100.00
2022-12-28T00:26:13.868Z,100.00
2022-12-28T00:28:44.179Z,100.00
2022-12-28T00:31:14.544Z,100.00
2022-12-28T00:33:45.012Z,100.00
2022-12-28T00:36:17.883Z,100.00
2022-12-28T00:38:48.318Z,100.00
2022-12-28T00:41:21.046Z,100.00
2022-12-28T00:43:51.127Z,100.00
2022-12-28T00:46:21.288Z,100.00
2022-12-28T00:48:51.286Z,100.00
2022-12-28T00:51:23.799Z,100.00
2022-12-28T00:53:54.032Z,100.00
2022-12-28T00:56:26.795Z,100.00
2022-12-28T00:59:01.880Z,100.00
2022-12-28T01:01:32.916Z,100.00
2022-12-28T01:04:03.422Z,100.00
2022-12-28T01:06:33.631Z,100.00
2022-12-28T01:09:03.850Z,100.00
2022-12-28T01:11:36.676Z,100.00
2022-12-28T01:14:06.764Z,100.00
2022-12-28T01:16:39.439Z,100.00
2022-12-28T01:19:13.821Z,100.00
2022-12-28T01:21:44.587Z,100.00
2022-12-28T01:24:14.637Z,100.00
2022-12-28T01:26:47.290Z,100.00
2022-12-28T01:29:17.291Z,100.00
2022-12-28T01:31:47.376Z,100.00
2022-12-28T01:34:17.466Z,100.00
2022-12-28T01:36:49.895Z,100.00
2022-12-28T01:39:19.956Z,100.00
2022-12-28T01:41:52.640Z,100.00
2022-12-28T01:44:48.990Z,100.00
2022-12-28T01:47:24.946Z,100.00
2022-12-28T01:50:02.960Z,100.00
2022-12-28T01:52:41.975Z,100.00
2022-12-28T01:55:17.514Z,100.00
2022-12-28T01:57:57.047Z,100.00
2022-12-28T02:00:27.168Z,100.00
2022-12-28T02:03:02.976Z,100.00
2022-12-28T02:05:40.757Z,100.00
2022-12-28T02:08:18.380Z,100.00
2022-12-28T02:10:50.429Z,100.00
2022-12-28T02:13:26.703Z,100.00
2022-12-28T02:16:00.935Z,100.00
2022-12-28T02:18:31.321Z,100.00
2022-12-28T02:21:23.532Z,100.00
2022-12-28T02:24:43.451Z,100.00
2022-12-28T02:27:26.540Z,100.00
2022-12-28T02:30:08.096Z,100.00
2022-12-28T02:32:58.104Z,100.00
2022-12-28T02:35:41.622Z,100.00
2022-12-28T02:38:24.608Z,100.00
2022-12-28T02:41:02.789Z,100.00
2022-12-28T02:43:35.476Z,100.00
2022-12-28T02:46:34.454Z,100.00
2022-12-28T02:49:31.325Z,100.00
2022-12-28T02:52:16.913Z,100.00
2022-12-28T02:55:40.871Z,100.00
2022-12-28T02:58:44.792Z,100.00
2022-12-28T03:01:38.941Z,100.00
2022-12-28T03:04:21.025Z,100.00
2022-12-28T03:07:17.555Z,100.00
2022-12-28T03:09:55.193Z,100.00
2022-12-28T03:12:32.511Z,100.00
2022-12-28T03:15:12.352Z,100.00
2022-12-28T03:17:59.681Z,100.00
2022-12-28T03:20:47.180Z,100.00
2022-12-28T03:23:35.212Z,100.00
2022-12-28T03:26:24.407Z,100.00
2022-12-28T03:29:10.118Z,100.00
2022-12-28T03:31:44.502Z,100.00
2022-12-28T03:34:20.323Z,100.00
2022-12-28T03:37:02.382Z,100.00
2022-12-28T03:39:45.615Z,100.00
2022-12-28T03:42:34.227Z,100.00
2022-12-28T03:45:15.005Z,100.00
2022-12-28T03:48:08.686Z,100.00
2022-12-28T03:50:45.744Z,100.00
2022-12-28T03:53:19.432Z,100.00
2022-12-28T03:55:49.583Z,100.00
2022-12-28T03:58:24.642Z,100.00
2022-12-28T04:00:55.765Z,100.00
2022-12-28T04:03:26.273Z,100.00
2022-12-28T04:05:58.910Z,100.00
2022-12-28T04:08:29.014Z,100.00
2022-12-28T04:11:01.893Z,100.00
2022-12-28T04:13:33.440Z,100.00
2022-12-28T04:16:13.718Z,100.00
2022-12-28T04:18:45.689Z,100.00
2022-12-28T04:21:19.291Z,100.00
2022-12-28T04:23:49.927Z,100.00
2022-12-28T04:26:23.579Z,100.00
2022-12-28T04:29:00.787Z,100.00
2022-12-28T04:31:49.942Z,100.00
2022-12-28T04:34:22.704Z,100.00
2022-12-28T04:37:03.263Z,100.00
2022-12-28T04:39:54.298Z,100.00
2022-12-28T04:42:23.175Z,100.00
2022-12-28T04:44:53.216Z,100.00
2022-12-28T04:47:23.327Z,100.00
2022-12-28T04:49:53.300Z,100.00
2022-12-28T04:52:25.826Z,100.00
2022-12-28T04:54:55.747Z,100.00
2022-12-28T04:57:25.682Z,100.00
2022-12-28T04:59:55.632Z,100.00
2022-12-28T05:02:25.665Z,100.00
2022-12-28T05:04:55.692Z,100.00
2022-12-28T05:07:28.238Z,100.00
2022-12-28T05:09:58.250Z,100.00
2022-12-28T05:12:28.507Z,100.00
2022-12-28T05:14:58.476Z,100.00
2022-12-28T05:17:28.445Z,100.00
2022-12-28T05:19:58.402Z,100.00
2022-12-28T05:22:33.145Z,100.00
2022-12-28T05:25:06.965Z,100.00
2022-12-28T05:27:37.905Z,100.00
2022-12-28T05:30:10.396Z,100.00
2022-12-28T05:32:40.427Z,100.00
2022-12-28T05:35:12.556Z,100.00
2022-12-28T05:37:45.143Z,100.00
2022-12-28T05:40:15.372Z,100.00
2022-12-28T05:42:51.114Z,100.00
2022-12-28T05:45:21.658Z,100.00
2022-12-28T05:47:51.638Z,100.00
2022-12-28T05:50:21.570Z,100.00
2022-12-28T05:52:54.094Z,100.00
2022-12-28T05:55:24.756Z,100.00
2022-12-28T05:57:57.022Z,100.00
2022-12-28T06:00:26.976Z,100.00
2022-12-28T06:02:58.407Z,100.00
2022-12-28T06:05:28.451Z,100.00
2022-12-28T06:08:01.189Z,100.00
2022-12-28T06:10:31.240Z,100.00
2022-12-28T06:13:01.153Z,100.00
2022-12-28T06:15:31.142Z,100.00
2022-12-28T06:18:01.076Z,100.00
2022-12-28T06:20:31.058Z,100.00
2022-12-28T06:23:03.825Z,100.00
2022-12-28T06:25:33.732Z,100.00
2022-12-28T06:28:03.683Z,100.00
2022-12-28T06:30:33.639Z,100.00
2022-12-28T06:33:03.549Z,100.00
2022-12-28T06:35:33.533Z,100.00
2022-12-28T06:38:06.135Z,100.00
2022-12-28T06:41:10.882Z,100.00
2022-12-28T06:43:26.029Z,100.00
2022-12-28T06:45:59.644Z,100.00
2022-12-28T06:48:29.907Z,100.00
2022-12-28T06:51:01.615Z,100.00
2022-12-28T06:53:37.163Z,100.00
2022-12-28T06:56:10.533Z,100.00
2022-12-28T06:58:41.125Z,100.00
2022-12-28T07:01:13.646Z,100.00
2022-12-28T07:03:43.922Z,100.00
2022-12-28T07:06:16.585Z,100.00
2022-12-28T07:08:50.487Z,100.00
2022-12-28T07:11:23.367Z,100.00
2022-12-28T07:13:53.309Z,100.00
2022-12-28T07:16:25.247Z,100.00
2022-12-28T07:18:55.485Z,100.00
2022-12-28T07:21:28.414Z,100.00
2022-12-28T07:24:01.686Z,100.00
2022-12-28T07:26:34.953Z,100.00
2022-12-28T07:29:09.060Z,100.00
2022-12-28T07:31:45.843Z,100.00
2022-12-28T07:34:18.703Z,100.00
2022-12-28T07:36:48.624Z,100.00
2022-12-28T07:39:21.147Z,100.00
2022-12-28T07:41:51.279Z,100.00
2022-12-28T07:44:29.438Z,100.00
2022-12-28T07:46:59.916Z,100.00
2022-12-28T07:49:29.969Z,100.00
2022-12-28T07:51:59.912Z,100.00
2022-12-28T07:54:32.598Z,100.00
2022-12-28T07:57:02.528Z,100.00
2022-12-28T07:59:32.522Z,100.00
2022-12-28T08:02:02.774Z,100.00
2022-12-28T08:04:32.839Z,100.00
2022-12-28T08:07:02.790Z,100.00
2022-12-28T08:09:35.575Z,100.00
2022-12-28T08:12:05.639Z,100.00
2022-12-28T08:14:35.591Z,100.00
2022-12-28T08:17:05.543Z,100.00
2022-12-28T08:19:36.066Z,100.00
2022-12-28T08:22:08.803Z,100.00
2022-12-28T08:24:41.338Z,100.00
2022-12-28T08:27:12.089Z,100.00
2022-12-28T08:29:42.260Z,100.00
2022-12-28T08:32:12.219Z,100.00
2022-12-28T08:34:42.194Z,100.00
2022-12-28T08:37:12.208Z,100.00
2022-12-28T08:39:44.705Z,100.00
2022-12-28T08:42:14.767Z,100.00
2022-12-28T08:44:44.714Z,100.00
2022-12-28T08:47:14.750Z,100.00
2022-12-28T08:49:44.720Z,100.00
2022-12-28T08:52:14.690Z,100.00
2022-12-28T08:54:47.211Z,100.00
2022-12-28T08:57:17.179Z,100.00
2022-12-28T08:59:47.145Z,100.00
2022-12-28T09:02:17.256Z,100.00
2022-12-28T09:04:47.622Z,100.00
2022-12-28T09:07:17.575Z,100.00
2022-12-28T09:09:50.146Z,100.00
2022-12-28T09:12:20.095Z,100.00
2022-12-28T09:14:50.174Z,100.00
2022-12-28T09:17:20.227Z,100.00
2022-12-28T09:19:50.210Z,100.00
2022-12-28T09:22:20.174Z,100.00
2022-12-28T09:24:52.771Z,100.00
2022-12-28T09:27:22.712Z,100.00
2022-12-28T09:29:52.686Z,100.00
2022-12-28T09:32:22.672Z,100.00
2022-12-28T09:34:52.627Z,100.00
2022-12-28T09:37:22.617Z,100.00
2022-12-28T09:40:01.006Z,100.00
2022-12-28T09:42:33.496Z,100.00
2022-12-28T09:45:08.514Z,100.00
2022-12-28T09:47:46.303Z,100.00
2022-12-28T09:50:35.155Z,100.00
2022-12-28T09:53:24.607Z,100.00
2022-12-28T09:56:05.721Z,100.00
2022-12-28T09:58:46.464Z,100.00
2022-12-28T10:01:21.321Z,100.00
2022-12-28T10:03:52.033Z,100.00
2022-12-28T10:06:28.397Z,100.00
2022-12-28T10:09:03.049Z,100.00
2022-12-28T10:11:41.116Z,100.00
2022-12-28T10:14:22.682Z,100.00
2022-12-28T10:16:52.775Z,100.00
2022-12-28T10:19:27.742Z,100.00
2022-12-28T10:22:03.884Z,100.00
2022-12-28T10:24:34.937Z,100.00
2022-12-28T10:27:10.770Z,100.00
2022-12-28T10:29:40.939Z,100.00
2022-12-28T10:32:12.817Z,100.00
2022-12-28T10:34:58.977Z,100.00
2022-12-28T10:37:33.592Z,98.03
2022-12-28T10:40:09.531Z,93.56
2022-12-28T10:42:46.646Z,89.72
2022-12-28T10:45:23.281Z,86.26
2022-12-28T10:47:56.359Z,78.64
2022-12-28T10:50:54.436Z,79.37
2022-12-28T10:53:32.949Z,83.61
2022-12-28T10:56:22.218Z,83.92
2022-12-28T10:58:57.211Z,78.97
2022-12-28T11:01:31.130Z,81.48
2022-12-28T11:04:07.113Z,81.27
2022-12-28T11:06:39.540Z,88.88
2022-12-28T11:09:19.668Z,85.46
2022-12-28T11:11:52.399Z,84.89
2022-12-28T11:14:34.646Z,85.46
2022-12-28T11:17:18.482Z,88.51
2022-12-28T11:19:51.582Z,84.75
2022-12-28T11:22:29.018Z,89.61
2022-12-28T11:25:02.831Z,90.52
2022-12-28T11:27:32.883Z,89.92
2022-12-28T11:30:09.080Z,93.94
2022-12-28T11:32:51.717Z,94.59
2022-12-28T11:35:25.509Z,99.73
2022-12-28T11:37:59.272Z,96.77
2022-12-28T11:40:55.295Z,98.38
2022-12-28T11:43:53.879Z,97.92
2022-12-28T11:47:01.799Z,95.77
2022-12-28T11:49:36.181Z,95.72
2022-12-28T11:52:47.180Z,94.18
2022-12-28T11:55:49.187Z,96.76
2022-12-28T11:59:08.744Z,97.01
2022-12-28T12:01:50.951Z,97.41
2022-12-28T12:04:46.706Z,98.29
2022-12-28T12:07:48.690Z,98.65
2022-12-28T12:10:39.050Z,100.00
2022-12-28T12:13:44.731Z,100.00
2022-12-28T12:16:29.181Z,100.00
2022-12-28T12:19:04.046Z,100.00
2022-12-28T12:21:39.489Z,100.00
2022-12-28T12:24:28.154Z,100.00
2022-12-28T12:27:11.883Z,100.00
2022-12-28T12:29:46.960Z,100.00
2022-12-28T12:32:26.659Z,99.19
2022-12-28T12:35:06.856Z,98.86
2022-12-28T12:37:48.867Z,97.84
2022-12-28T12:40:53.444Z,97.24
2022-12-28T12:43:40.428Z,94.28
2022-12-28T12:47:05.694Z,94.94
2022-12-28T12:49:55.102Z,95.24
2022-12-28T12:52:43.393Z,95.50
2022-12-28T12:55:31.457Z,97.55
2022-12-28T12:58:11.932Z,97.76
2022-12-28T13:00:55.708Z,96.73
2022-12-28T13:03:41.518Z,96.44
2022-12-28T13:06:15.870Z,94.84
2022-12-28T13:08:54.547Z,95.92
2022-12-28T13:11:26.481Z,95.77
2022-12-28T13:13:57.792Z,100.00
2022-12-28T13:16:32.705Z,99.05
2022-12-28T13:19:05.676Z,97.99
2022-12-28T13:21:45.801Z,97.27
2022-12-28T13:24:28.034Z,98.38
2022-12-28T13:26:59.944Z,96.13
2022-12-28T13:29:35.940Z,99.03
2022-12-28T13:32:06.009Z,98.49
2022-12-28T13:34:38.652Z,100.00
2022-12-28T13:37:19.075Z,98.81
2022-12-28T13:39:52.202Z,99.35
2022-12-28T13:42:31.483Z,96.97
2022-12-28T13:45:05.767Z,99.67
2022-12-28T13:47:42.414Z,100.00
2022-12-28T13:50:19.017Z,100.00
2022-12-28T13:52:54.789Z,98.39
2022-12-28T13:55:34.746Z,99.32
2022-12-28T13:58:11.563Z,100.00
2022-12-28T14:00:46.812Z,100.00
2022-12-28T14:03:19.146Z,100.00
2022-12-28T14:05:55.108Z,100.00
2022-12-28T14:08:26.099Z,100.00
2022-12-28T14:10:59.307Z,100.00
2022-12-28T14:13:29.995Z,100.00
2022-12-28T14:16:00.590Z,100.00
2022-12-28T14:18:31.527Z,100.00
2022-12-28T14:21:04.059Z,100.00
2022-12-28T14:23:36.663Z,100.00
2022-12-28T14:26:13.204Z,100.00
2022-12-28T14:28:48.403Z,100.00
2022-12-28T14:31:29.599Z,100.00
2022-12-28T14:34:03.520Z,100.00
2022-12-28T14:36:36.690Z,100.00
2022-12-28T14:39:07.760Z,100.00
2022-12-28T14:41:48.288Z,100.00
2022-12-28T14:44:25.252Z,100.00
2022-12-28T14:46:55.908Z,100.00
2022-12-28T14:49:40.081Z,100.00
2022-12-28T14:52:37.395Z,100.00
2022-12-28T14:55:28.980Z,100.00
2022-12-28T14:58:07.508Z,100.00
2022-12-28T15:00:39.790Z,100.00
2022-12-28T15:03:23.845Z,100.00
2022-12-28T15:05:55.933Z,100.00
2022-12-28T15:08:27.387Z,100.00
2022-12-28T15:11:00.550Z,100.00
2022-12-28T15:13:33.190Z,100.00
2022-12-28T15:16:06.230Z,100.00
2022-12-28T15:18:37.691Z,100.00
2022-12-28T15:21:08.975Z,100.00
2022-12-28T15:23:39.002Z,100.00
2022-12-28T15:26:10.849Z,100.00
2022-12-28T15:28:44.689Z,100.00
2022-12-28T15:31:17.825Z,100.00
2022-12-28T15:33:49.187Z,100.00
2022-12-28T15:36:22.041Z,100.00
2022-12-28T15:38:52.681Z,100.00
2022-12-28T15:41:35.173Z,100.00
2022-12-28T15:44:08.732Z,100.00
2022-12-28T15:46:38.840Z,100.00
2022-12-28T15:49:10.871Z,100.00
2022-12-28T15:51:41.815Z,100.00
2022-12-28T15:54:11.829Z,100.00
2022-12-28T15:56:44.392Z,100.00
2022-12-28T15:59:17.863Z,100.00
2022-12-28T16:01:48.963Z,100.00
2022-12-28T16:04:19.465Z,100.00
2022-12-28T16:06:49.470Z,100.00
2022-12-28T16:09:19.446Z,100.00
2022-12-28T16:11:54.830Z,100.00
2022-12-28T16:14:27.884Z,100.00
2022-12-28T16:16:58.017Z,100.00
2022-12-28T16:19:28.853Z,100.00
2022-12-28T16:21:58.857Z,100.00
2022-12-28T16:24:29.717Z,100.00
2022-12-28T16:27:00.058Z,100.00
2022-12-28T16:29:32.650Z,100.00
2022-12-28T16:32:04.188Z,100.00
2022-12-28T16:34:34.350Z,100.00
2022-12-28T16:37:04.290Z,100.00
2022-12-28T16:39:34.762Z,100.00
2022-12-28T16:42:04.824Z,100.00
2022-12-28T16:44:37.497Z,100.00
2022-12-28T16:47:11.331Z,100.00
2022-12-28T16:49:43.013Z,100.00
2022-12-28T16:52:13.038Z,100.00
2022-12-28T16:54:43.033Z,100.00
2022-12-28T16:57:13.122Z,100.00
2022-12-28T16:59:45.641Z,100.00
2022-12-28T17:02:17.260Z,100.00
2022-12-28T17:04:47.350Z,100.00
2022-12-28T17:07:17.281Z,100.00
2022-12-28T17:09:50.315Z,100.00
2022-12-28T17:12:20.534Z,100.00
2022-12-28T17:14:53.334Z,100.00
2022-12-28T17:17:23.274Z,100.00
2022-12-28T17:19:53.293Z,100.00
2022-12-28T17:22:23.249Z,100.00
2022-12-28T17:24:53.245Z,100.00
2022-12-28T17:27:23.830Z,100.00
2022-12-28T17:29:56.448Z,100.00
2022-12-28T17:32:26.411Z,100.00
2022-12-28T17:34:56.436Z,100.00
2022-12-28T17:37:26.426Z,100.00
2022-12-28T17:39:56.379Z,100.00
2022-12-28T17:42:26.369Z,100.00
2022-12-28T17:44:59.012Z,100.00
2022-12-28T17:47:29.218Z,100.00
2022-12-28T17:49:59.209Z,100.00
2022-12-28T17:52:30.166Z,100.00
2022-12-28T17:55:00.206Z,100.00
2022-12-28T17:57:35.355Z,100.00
2022-12-28T18:00:13.780Z,100.00
2022-12-28T18:02:44.386Z,100.00
2022-12-28T18:05:14.674Z,100.00
2022-12-28T18:07:44.669Z,100.00
2022-12-28T18:10:14.628Z,100.00
2022-12-28T18:12:44.524Z,100.00
2022-12-28T18:15:17.516Z,100.00
2022-12-28T18:17:47.473Z,100.00
2022-12-28T18:20:18.758Z,100.00
2022-12-28T18:22:48.769Z,100.00
2022-12-28T18:25:19.090Z,100.00
2022-12-28T18:27:49.132Z,100.00
2022-12-28T18:30:21.709Z,100.00
2022-12-28T18:32:51.656Z,100.00
2022-12-28T18:35:24.936Z,100.00
2022-12-28T18:37:55.309Z,100.00
2022-12-28T18:40:25.370Z,100.00
2022-12-28T18:42:55.451Z,100.00
2022-12-28T18:45:28.017Z,100.00
2022-12-28T18:47:58.089Z,100.00
2022-12-28T18:50:28.262Z,100.00
2022-12-28T18:52:58.300Z,100.00
2022-12-28T18:55:28.360Z,100.00
2022-12-28T18:57:58.410Z,100.00
2022-12-28T19:00:31.194Z,100.00
2022-12-28T19:03:01.308Z,100.00
2022-12-28T19:05:31.348Z,100.00
2022-12-28T19:08:01.292Z,100.00
2022-12-28T19:10:31.261Z,100.00
2022-12-28T19:13:01.216Z,100.00
2022-12-28T19:15:33.968Z,100.00
2022-12-28T19:18:04.048Z,100.00
2022-12-28T19:20:34.040Z,100.00
2022-12-28T19:23:04.004Z,100.00
2022-12-28T19:25:34.116Z,100.00
2022-12-28T19:28:04.139Z,100.00
2022-12-28T19:30:37.004Z,100.00
2022-12-28T19:33:07.089Z,100.00
2022-12-28T19:35:37.080Z,100.00
2022-12-28T19:38:07.079Z,100.00
2022-12-28T19:40:37.068Z,100.00
2022-12-28T19:43:07.102Z,100.00
2022-12-28T19:45:39.606Z,100.00
2022-12-28T19:48:09.727Z,100.00
2022-12-28T19:50:39.709Z,100.00
2022-12-28T19:53:09.733Z,100.00
2022-12-28T19:55:39.864Z,100.00
2022-12-28T19:58:09.848Z,100.00
2022-12-28T20:00:42.853Z,100.00
2022-12-28T20:03:13.305Z,100.00
2022-12-28T20:05:44.237Z,100.00
2022-12-28T20:08:14.556Z,100.00
2022-12-28T20:10:44.635Z,100.00
2022-12-28T20:13:15.039Z,100.00
2022-12-28T20:15:47.684Z,100.00
2022-12-28T20:18:17.710Z,100.00
2022-12-28T20:21:17.915Z,100.00
2022-12-28T20:23:39.211Z,100.00
2022-12-28T20:26:10.476Z,100.00
2022-12-28T20:28:40.702Z,100.00
2022-12-28T20:31:17.197Z,100.00
2022-12-28T20:33:48.345Z,100.00
2022-12-28T20:36:22.136Z,100.00
2022-12-28T20:38:53.138Z,100.00
2022-12-28T20:41:43.846Z,100.00
2022-12-28T20:44:16.998Z,100.00
2022-12-28T20:46:49.607Z,100.00
2022-12-28T20:49:19.654Z,100.00
2022-12-28T20:51:49.918Z,100.00
2022-12-28T20:54:19.926Z,100.00
2022-12-28T20:56:54.789Z,100.00
2022-12-28T20:59:26.983Z,100.00
2022-12-28T21:01:59.651Z,100.00
2022-12-28T21:04:30.004Z,100.00
2022-12-28T21:07:00.383Z,100.00
2022-12-28T21:09:30.304Z,100.00
2022-12-28T21:12:00.271Z,100.00
2022-12-28T21:14:30.187Z,100.00
2022-12-28T21:17:02.756Z,100.00
2022-12-28T21:19:32.685Z,100.00
2022-12-28T21:22:03.107Z,100.00
2022-12-28T21:24:33.757Z,100.00
2022-12-28T21:27:04.244Z,100.00
2022-12-28T21:29:34.319Z,100.00
2022-12-28T21:32:09.429Z,100.00
2022-12-28T21:34:39.431Z,100.00
2022-12-28T21:37:21.803Z,100.00
2022-12-28T21:39:51.880Z,100.00
2022-12-28T21:42:21.865Z,100.00
2022-12-28T21:44:52.130Z,100.00
2022-12-28T21:47:24.703Z,100.00
2022-12-28T21:49:55.443Z,100.00
2022-12-28T21:52:25.756Z,100.00
2022-12-28T21:54:55.690Z,100.00
2022-12-28T21:57:25.718Z,100.00
2022-12-28T21:59:55.809Z,100.00
2022-12-28T22:02:56.075Z,100.00
2022-12-28T22:05:38.719Z,100.00
2022-12-28T22:08:21.038Z,100.00
2022-12-28T22:11:04.479Z,100.00
2022-12-28T22:13:34.422Z,100.00
2022-12-28T22:16:04.512Z,100.00
2022-12-28T22:19:00.903Z,100.00
2022-12-28T22:21:27.680Z,100.00
2022-12-28T22:23:58.133Z,100.00
2022-12-28T22:26:28.223Z,100.00
2022-12-28T22:28:58.141Z,100.00
2022-12-28T22:31:28.122Z,100.00
2022-12-28T22:34:06.795Z,100.00
2022-12-28T22:36:37.418Z,100.00
2022-12-28T22:39:07.470Z,100.00
2022-12-28T22:41:37.510Z,100.00
2022-12-28T22:44:07.963Z,100.00
2022-12-28T22:46:37.925Z,100.00
2022-12-28T22:49:10.459Z,100.00
2022-12-28T22:51:40.983Z,100.00
2022-12-28T22:54:11.298Z,100.00
2022-12-28T22:56:41.295Z,100.00
2022-12-28T22:59:15.495Z,100.00
2022-12-28T23:01:48.280Z,100.00
2022-12-28T23:04:21.573Z,100.00
2022-12-28T23:06:51.534Z,100.00
2022-12-28T23:09:21.544Z,100.00
2022-12-28T23:11:52.334Z,100.00
2022-12-28T23:14:42.666Z,100.00
2022-12-28T23:17:17.249Z,100.00
2022-12-28T23:20:02.655Z,100.00
2022-12-28T23:22:48.586Z,100.00
2022-12-28T23:25:34.556Z,100.00
2022-12-28T23:28:08.201Z,100.00
2022-12-28T23:30:40.840Z,100.00
2022-12-28T23:33:10.996Z,100.00
2022-12-28T23:35:43.536Z,100.00
2022-12-28T23:38:14.018Z,100.00
2022-12-28T23:40:44.607Z,100.00
2022-12-28T23:43:14.651Z,100.00
2022-12-28T23:45:44.729Z,100.00
2022-12-28T23:48:14.972Z,100.00
2022-12-28T23:50:47.584Z,100.00
2022-12-28T23:53:17.752Z,100.00
2022-12-28T23:55:47.763Z,100.00
2022-12-28T23:58:17.794Z,100.00
